Time;durP1;ratioP1;P1;durP2;ratioP2;P2;SDS_P1;SDS_P2;PMS_P1;PMS_P2;Temp;Humidity;BMP_temperature;BMP_pressure;BME280_temperature;BME280_humidity;BME280_pressure;Samples;Min_cycle;Max_cycle;Signal;HPM_P1;HPM_P2
2022/12/15 00:39:13;;;;;;;;;;;;;;;-4.09;nan;100508.41;5005628;28;20455;-30
2022/12/15 00:41:38;;;;;;;;;;;;;;;-4.13;nan;100507.09;5007542;28;19961;-30
2022/12/15 00:44:03;;;;;;;;;;;;;;;-4.17;nan;100511.00;5007792;28;19925;-30
2022/12/15 01:22:01;;;;;;;;;;;;;;;-4.36;nan;100513.88;5003834;28;19923;-30
2022/12/15 01:24:26;;;;;;;;;;;;;;;-4.37;nan;100522.69;5008153;28;19918;-30
2022/12/15 01:26:51;;;;;;;;;;;;;;;-4.41;nan;100509.09;5004773;28;19933;-30
2022/12/15 01:29:16;;;;;;;;;;;;;;;-4.43;nan;100511.06;5005877;28;19930;-30
2022/12/15 01:31:42;;;;;;;;;;;;;;;-4.46;nan;100506.16;5006549;28;19963;-30
2022/12/15 01:34:08;;;;;;;;;;;;;;;-4.48;nan;100510.72;5007327;28;20300;-30
2022/12/15 01:36:33;;;;;;;;;;;;;;;-4.50;nan;100504.00;5006070;28;19957;-30
2022/12/15 01:38:59;;;;;;;;;;;;;;;-4.53;nan;100502.50;5004890;28;20377;-30
2022/12/15 01:41:24;;;;;;;;;;;;;;;-4.56;nan;100508.88;5006587;28;20412;-30
2022/12/15 01:43:50;;;;;;;;;;;;;;;-4.57;nan;100504.63;5006714;28;19922;-30
2022/12/15 01:46:17;;;;;;;;;;;;;;;-4.58;nan;100510.81;5006595;28;20534;-30
2022/12/15 01:48:45;;;;;;;;;;;;;;;-4.59;nan;100509.19;5005084;28;19926;-30
2022/12/15 01:51:22;;;;;;;;;;;;;;;-4.59;nan;100518.81;5006147;28;19922;-30
2022/12/15 01:53:56;;;;;;;;;;;;;;;-4.59;nan;100531.91;5005956;28;20574;-30
2022/12/15 01:56:23;;;;;;;;;;;;;;;-4.61;nan;100534.66;5006224;28;20036;-30
2022/12/15 01:58:50;;;;;;;;;;;;;;;-4.62;nan;100538.25;5005893;28;20016;-30
2022/12/15 02:01:16;;;;;;;;;;;;;;;-4.60;nan;100541.53;5004136;28;19926;-30
2022/12/15 02:03:42;;;;;;;;;;;;;;;-4.61;nan;100534.66;5005564;28;19928;-30
2022/12/15 02:06:09;;;;;;;;;;;;;;;-4.63;nan;100527.97;5006832;28;19940;-30
2022/12/15 02:08:35;;;;;;;;;;;;;;;-4.63;nan;100538.41;5006325;28;19929;-30
2022/12/15 02:11:09;;;;;;;;;;;;;;;-4.64;nan;100535.00;5005761;28;19968;-30
2022/12/15 02:13:58;;;;;;;;;;;;;;;-4.65;nan;100543.00;5006073;28;19964;-30
2022/12/15 02:16:42;;;;;;;;;;;;;;;-4.68;nan;100544.09;5011046;28;19956;-30
2022/12/15 02:19:13;;;;;;;;;;;;;;;-4.69;nan;100552.09;5009643;28;19925;-30
2022/12/15 02:21:45;;;;;;;;;;;;;;;-4.73;nan;100548.16;5007064;28;19917;-30
2022/12/15 02:24:29;;;;;;;;;;;;;;;-4.76;nan;100553.69;5008835;28;19976;-30
2022/12/15 02:27:00;;;;;;;;;;;;;;;-4.79;nan;100549.59;5009702;28;19964;-30
2022/12/15 02:29:32;;;;;;;;;;;;;;;-4.80;nan;100547.13;5006091;28;19967;-30
2022/12/15 02:31:59;;;;;;;;;;;;;;;-4.83;nan;100548.25;5006659;28;20274;-30
2022/12/15 02:34:39;;;;;;;;;;;;;;;-4.84;nan;100557.09;5009904;28;19918;-30
2022/12/15 02:37:07;;;;;;;;;;;;;;;-4.86;nan;100567.66;5010410;28;19983;-30
2022/12/15 02:39:33;;;;;;;;;;;;;;;-4.87;nan;100570.44;5006352;28;20007;-30
2022/12/15 02:41:58;;;;;;;;;;;;;;;-4.87;nan;100575.66;5009103;28;19964;-30
2022/12/15 02:44:23;;;;;;;;;;;;;;;-4.88;nan;100576.63;5010712;28;20013;-30
2022/12/15 02:47:08;;;;;;;;;;;;;;;-4.90;nan;100582.00;5008235;28;19921;-30
2022/12/15 02:49:49;;;;;;;;;;;;;;;-4.91;nan;100584.78;5007140;28;20641;-30
2022/12/15 02:52:34;;;;;;;;;;;;;;;-4.94;nan;100593.75;5007372;28;20368;-30
2022/12/15 02:55:18;;;;;;;;;;;;;;;-4.95;nan;100604.34;4977591;28;19917;-30
2022/12/15 02:57:52;;;;;;;;;;;;;;;-4.97;nan;100608.91;5009447;28;20297;-30
2022/12/15 03:00:18;;;;;;;;;;;;;;;-4.99;nan;100611.69;5009387;28;19918;-29
2022/12/15 03:02:46;;;;;;;;;;;;;;;-5.00;nan;100611.84;5009161;28;19919;-30
2022/12/15 03:05:12;;;;;;;;;;;;;;;-5.02;nan;100609.38;5009182;28;19931;-30
2022/12/15 03:07:38;;;;;;;;;;;;;;;-5.02;nan;100613.78;5008567;28;19913;-30
2022/12/15 03:10:04;;;;;;;;;;;;;;;-5.04;nan;100616.50;5008088;28;19929;-30
2022/12/15 03:12:30;;;;;;;;;;;;;;;-5.05;nan;100603.59;5008924;28;19969;-30
2022/12/15 03:14:56;;;;;;;;;;;;;;;-5.03;nan;100606.88;5008056;28;19964;-30
2022/12/15 03:17:22;;;;;;;;;;;;;;;-5.03;nan;100617.31;5009846;28;20297;-30
2022/12/15 03:19:47;;;;;;;;;;;;;;;-5.06;nan;100612.41;5005729;28;20431;-30
2022/12/15 03:22:13;;;;;;;;;;;;;;;-5.06;nan;100613.22;5009152;28;19921;-30
2022/12/15 03:24:38;;;;;;;;;;;;;;;-5.05;nan;100620.09;5008297;28;19913;-30
2022/12/15 03:27:03;;;;;;;;;;;;;;;-5.05;nan;100606.22;5007757;28;20420;-30
2022/12/15 03:29:29;;;;;;;;;;;;;;;-5.05;nan;100604.41;5005922;28;20320;-30
2022/12/15 03:31:54;;;;;;;;;;;;;;;-5.05;nan;100609.66;5006704;28;19921;-30
2022/12/15 03:34:19;;;;;;;;;;;;;;;-5.03;nan;100609.50;5009835;28;20388;-30
2022/12/15 03:36:45;;;;;;;;;;;;;;;-5.01;nan;100602.34;5006332;28;20376;-30
2022/12/15 03:39:10;;;;;;;;;;;;;;;-5.00;nan;100606.59;5007345;28;19941;-30
2022/12/15 03:41:35;;;;;;;;;;;;;;;-5.00;nan;100609.22;5006813;28;19972;-30
2022/12/15 03:44:01;;;;;;;;;;;;;;;-5.00;nan;100620.47;5007143;28;19984;-30
2022/12/15 03:46:26;;;;;;;;;;;;;;;-4.99;nan;100608.25;5008476;28;19918;-30
2022/12/15 03:48:52;;;;;;;;;;;;;;;-5.00;nan;100609.22;5007247;28;19932;-30
2022/12/15 03:51:18;;;;;;;;;;;;;;;-5.01;nan;100604.97;4999530;28;19917;-30
2022/12/15 03:53:43;;;;;;;;;;;;;;;-5.01;nan;100604.97;5008402;28;20381;-29
2022/12/15 03:56:09;;;;;;;;;;;;;;;-5.01;nan;100600.56;5008057;28;20388;-30
2022/12/15 03:58:34;;;;;;;;;;;;;;;-5.00;nan;100598.75;5007894;28;20384;-30
2022/12/15 04:01:08;;;;;;;;;;;;;;;-4.99;nan;100592.56;5007935;28;19970;-30
2022/12/15 04:03:33;;;;;;;;;;;;;;;-5.00;nan;100601.38;5004583;28;19929;-30
2022/12/15 04:05:59;;;;;;;;;;;;;;;-5.01;nan;100604.97;5006431;28;19918;-30
2022/12/15 04:08:25;;;;;;;;;;;;;;;-5.01;nan;100602.34;5005865;28;19953;-30
2022/12/15 04:10:50;;;;;;;;;;;;;;;-5.03;nan;100597.25;5005018;28;20759;-30
2022/12/15 04:13:16;;;;;;;;;;;;;;;-5.02;nan;100603.31;5008517;28;20047;-29
2022/12/15 04:15:41;;;;;;;;;;;;;;;-5.01;nan;100602.34;5008566;28;19922;-30
2022/12/15 04:18:08;;;;;;;;;;;;;;;-5.02;nan;100614.59;5007011;28;19928;-30
2022/12/15 04:20:34;;;;;;;;;;;;;;;-5.01;nan;100620.63;5007436;28;19917;-30
2022/12/15 04:22:59;;;;;;;;;;;;;;;-4.99;nan;100623.91;5007254;28;20340;-30
2022/12/15 05:34:15;;;;;;;;;;;;;;;-4.96;nan;100679.31;5005761;28;19924;-29
2022/12/15 05:36:40;;;;;;;;;;;;;;;-4.94;nan;100676.53;5002895;28;20285;-30
2022/12/15 05:39:06;;;;;;;;;;;;;;;-4.94;nan;100681.78;5003794;28;21586;-30
2022/12/15 05:41:31;;;;;;;;;;;;;;;-4.95;nan;100690.56;5003961;28;20105;-30
2022/12/15 05:43:56;;;;;;;;;;;;;;;-4.96;nan;100702.00;5006656;28;20434;-30
2022/12/15 05:46:22;;;;;;;;;;;;;;;-4.98;nan;100703.94;5004453;28;19952;-30
2022/12/15 05:48:47;;;;;;;;;;;;;;;-4.97;nan;100714.25;5005265;28;19957;-29
2022/12/15 05:51:13;;;;;;;;;;;;;;;-4.98;nan;100710.00;5006224;28;19952;-30
2022/12/15 05:53:39;;;;;;;;;;;;;;;-4.98;nan;100706.56;5006160;28;19933;-30
2022/12/15 05:56:09;;;;;;;;;;;;;;;-4.99;nan;100718.81;5005464;28;19959;-29
2022/12/15 05:58:35;;;;;;;;;;;;;;;-5.01;nan;100719.94;5001914;28;19924;-29
2022/12/15 06:01:03;;;;;;;;;;;;;;;-5.03;nan;100734.91;5002786;28;20012;-29
2022/12/15 06:03:28;;;;;;;;;;;;;;;-5.05;nan;100729.81;5003407;28;20386;-29
2022/12/15 06:05:54;;;;;;;;;;;;;;;-5.07;nan;100742.22;5005085;28;19963;-29
2022/12/15 06:08:19;;;;;;;;;;;;;;;-5.08;nan;100734.53;5004527;28;19929;-29
2022/12/15 06:10:50;;;;;;;;;;;;;;;-5.11;nan;100730.41;5004490;28;20341;-29
2022/12/15 06:13:16;;;;;;;;;;;;;;;-5.14;nan;100725.50;5003653;28;20057;-30
2022/12/15 06:15:41;;;;;;;;;;;;;;;-5.17;nan;100726.63;5006082;28;19921;-30
2022/12/15 06:18:06;;;;;;;;;;;;;;;-5.15;nan;100725.66;5002464;28;19973;-29
2022/12/15 06:20:31;;;;;;;;;;;;;;;-5.15;nan;100734.31;5001924;28;19921;-30
2022/12/15 06:22:57;;;;;;;;;;;;;;;-5.14;nan;100732.50;5004340;28;20477;-30
2022/12/15 06:25:22;;;;;;;;;;;;;;;-5.14;nan;100735.13;5006767;28;19924;-29
2022/12/15 06:27:47;;;;;;;;;;;;;;;-5.12;nan;100738.41;5004719;28;21300;-30
2022/12/15 06:30:14;;;;;;;;;;;;;;;-5.09;nan;100740.72;5006106;28;19928;-29
2022/12/15 06:32:40;;;;;;;;;;;;;;;-5.06;nan;100750.88;5005053;28;20008;-29
2022/12/15 06:35:05;;;;;;;;;;;;;;;-5.05;nan;100755.94;5004345;28;21435;-29
2022/12/15 06:37:31;;;;;;;;;;;;;;;-5.03;nan;100742.75;5006115;28;20316;-29
2022/12/15 06:39:56;;;;;;;;;;;;;;;-5.04;nan;100744.53;5004677;28;19918;-29
2022/12/15 06:42:22;;;;;;;;;;;;;;;-5.05;nan;100744.69;5001445;28;19999;-29
2022/12/15 06:44:47;;;;;;;;;;;;;;;-5.05;nan;100734.22;5005263;28;19918;-30
2022/12/15 06:47:12;;;;;;;;;;;;;;;-5.06;nan;100738.63;5006414;28;19925;-30
2022/12/15 06:49:38;;;;;;;;;;;;;;;-5.09;nan;100725.03;5005928;28;19968;-30
2022/12/15 06:52:03;;;;;;;;;;;;;;;-5.17;nan;100718.78;5004207;28;20344;-29
2022/12/15 06:54:28;;;;;;;;;;;;;;;-5.19;nan;100722.50;5006572;28;20225;-29
2022/12/15 06:56:55;;;;;;;;;;;;;;;-5.15;nan;100736.09;5006310;28;20365;-30
2022/12/15 06:59:20;;;;;;;;;;;;;;;-5.14;nan;100753.41;5006323;28;19918;-30
2022/12/15 07:01:46;;;;;;;;;;;;;;;-5.12;nan;100756.69;5009230;28;19917;-29
2022/12/15 07:04:11;;;;;;;;;;;;;;;-5.09;nan;100766.84;4983902;28;19925;-29
2022/12/15 07:06:37;;;;;;;;;;;;;;;-5.06;nan;100763.94;5009363;28;19913;-30
2022/12/15 07:09:06;;;;;;;;;;;;;;;-5.01;nan;100774.78;5009323;28;20177;-29
2022/12/15 07:11:31;;;;;;;;;;;;;;;-4.97;nan;100771.72;5009695;28;19961;-29
2022/12/15 07:13:57;;;;;;;;;;;;;;;-4.96;nan;100764.72;5009157;28;19964;-30
2022/12/15 07:16:23;;;;;;;;;;;;;;;-4.99;nan;100763.22;5009816;28;19917;-29
2022/12/15 07:18:49;;;;;;;;;;;;;;;-5.03;nan;100769.69;5008143;28;21478;-29
2022/12/15 07:21:14;;;;;;;;;;;;;;;-5.05;nan;100778.66;5008811;28;20329;-29
2022/12/15 07:23:39;;;;;;;;;;;;;;;-5.07;nan;100797.06;5008369;28;20001;-30
2022/12/15 07:26:06;;;;;;;;;;;;;;;-5.08;nan;100807.69;5009568;28;20551;-30
2022/12/15 07:28:32;;;;;;;;;;;;;;;-5.09;nan;100811.25;5008489;28;20284;-30
2022/12/15 07:31:04;;;;;;;;;;;;;;;-5.05;nan;100807.38;5009010;28;19921;-30
2022/12/15 07:33:31;;;;;;;;;;;;;;;-5.01;nan;100814.00;5008617;28;20369;-29
2022/12/15 07:35:56;;;;;;;;;;;;;;;-4.99;nan;100823.31;5009456;28;19925;-30
2022/12/15 07:38:21;;;;;;;;;;;;;;;-4.97;nan;100837.06;5008725;28;19922;-30
2022/12/15 07:40:48;;;;;;;;;;;;;;;-4.94;nan;100830.72;5008710;28;19923;-29
2022/12/15 07:43:13;;;;;;;;;;;;;;;-4.89;nan;100844.16;5008815;28;20289;-30
2022/12/15 07:45:38;;;;;;;;;;;;;;;-4.86;nan;100846.47;5008450;28;19921;-30
2022/12/15 07:48:04;;;;;;;;;;;;;;;-4.78;nan;100848.38;5009103;28;19921;-29
2022/12/15 07:50:29;;;;;;;;;;;;;;;-4.72;nan;100847.78;5008489;28;20009;-29
2022/12/15 07:52:54;;;;;;;;;;;;;;;-4.67;nan;100854.25;5007531;28;19975;-30
2022/12/15 07:55:20;;;;;;;;;;;;;;;-4.63;nan;100854.75;5009236;28;19917;-29
2022/12/15 07:57:48;;;;;;;;;;;;;;;-4.61;nan;100864.09;5008058;28;20444;-30
2022/12/15 08:00:14;;;;;;;;;;;;;;;-4.56;nan;100861.84;5009089;28;19928;-30
2022/12/15 08:02:40;;;;;;;;;;;;;;;-4.42;nan;100873.63;5008258;28;19917;-30
2022/12/15 08:05:06;;;;;;;;;;;;;;;-4.34;nan;100880.72;5008416;28;20018;-30
2022/12/15 08:07:31;;;;;;;;;;;;;;;-4.34;nan;100880.72;5008290;28;19925;-29
2022/12/15 08:09:57;;;;;;;;;;;;;;;-4.33;nan;100882.34;5008481;28;19929;-30
2022/12/15 08:12:22;;;;;;;;;;;;;;;-4.38;nan;100889.81;5008303;28;20352;-29
2022/12/15 08:14:47;;;;;;;;;;;;;;;-4.40;nan;100892.59;5008328;28;20397;-29
2022/12/15 08:17:13;;;;;;;;;;;;;;;-4.41;nan;100887.50;5007861;28;20488;-29
2022/12/15 08:19:38;;;;;;;;;;;;;;;-4.36;nan;100885.28;5008089;28;20942;-29
2022/12/15 08:22:03;;;;;;;;;;;;;;;-4.29;nan;100889.78;5008384;28;20515;-29
2022/12/15 08:24:29;;;;;;;;;;;;;;;-4.25;nan;100898.16;5008223;28;19924;-30
2022/12/15 08:26:54;;;;;;;;;;;;;;;-4.19;nan;100894.94;5007609;28;20179;-29
2022/12/15 08:29:19;;;;;;;;;;;;;;;-4.14;nan;100900.53;5007869;28;19921;-30
2022/12/15 08:31:45;;;;;;;;;;;;;;;-4.08;nan;100902.56;5008695;28;19925;-30
2022/12/15 08:34:10;;;;;;;;;;;;;;;-4.04;nan;100903.09;5008539;28;20389;-30
2022/12/15 08:36:35;;;;;;;;;;;;;;;-4.02;nan;100906.38;5008006;28;20377;-29
2022/12/15 08:39:01;;;;;;;;;;;;;;;-3.99;nan;100909.50;5006592;28;19928;-30
2022/12/15 08:41:27;;;;;;;;;;;;;;;-3.98;nan;100905.09;5008222;28;19917;-29
2022/12/15 08:43:53;;;;;;;;;;;;;;;-3.96;nan;100901.34;5007433;28;19922;-29
2022/12/15 08:46:21;;;;;;;;;;;;;;;-3.86;nan;100905.69;5008190;28;19917;-30
2022/12/15 08:48:46;;;;;;;;;;;;;;;-3.91;nan;100914.00;5007737;28;19918;-29
2022/12/15 08:51:12;;;;;;;;;;;;;;;-3.84;nan;100914.22;5008148;28;20282;-30
2022/12/15 08:53:37;;;;;;;;;;;;;;;-3.74;nan;100918.41;5007368;28;20017;-30
2022/12/15 08:56:07;;;;;;;;;;;;;;;-3.83;nan;100910.63;5006477;28;20065;-29
2022/12/15 08:58:33;;;;;;;;;;;;;;;-3.79;nan;100910.16;5007568;28;20427;-29
2022/12/15 09:00:59;;;;;;;;;;;;;;;-3.86;nan;100917.00;5005942;28;19921;-29
2022/12/15 09:03:24;;;;;;;;;;;;;;;-3.93;nan;100907.28;5007539;28;19961;-29
2022/12/15 09:05:49;;;;;;;;;;;;;;;-4.01;nan;100923.72;5006782;28;20401;-29
2022/12/15 09:08:14;;;;;;;;;;;;;;;-4.02;nan;100916.84;5007518;28;20206;-29
2022/12/15 09:10:40;;;;;;;;;;;;;;;-4.08;nan;100913.03;5006965;28;19921;-29
2022/12/15 09:13:06;;;;;;;;;;;;;;;-4.14;nan;100924.06;5007530;28;19929;-29
2022/12/15 09:15:31;;;;;;;;;;;;;;;-4.16;nan;100920.78;5007538;28;19964;-29
2022/12/15 09:17:57;;;;;;;;;;;;;;;-4.10;nan;100925.44;5007182;28;19975;-29
2022/12/15 09:20:22;;;;;;;;;;;;;;;-3.97;nan;100928.50;5007866;28;19922;-29
2022/12/15 09:22:47;;;;;;;;;;;;;;;-3.89;nan;100922.53;5005962;28;20369;-29
2022/12/15 09:25:13;;;;;;;;;;;;;;;-3.78;nan;100919.66;5008269;28;19968;-29
2022/12/15 09:27:38;;;;;;;;;;;;;;;-3.71;nan;100919.91;5006777;28;19921;-30
2022/12/15 09:30:03;;;;;;;;;;;;;;;-3.61;nan;100931.09;5007349;28;19921;-30
2022/12/15 09:32:29;;;;;;;;;;;;;;;-3.49;nan;100935.13;5007531;28;19917;-30
2022/12/15 09:34:54;;;;;;;;;;;;;;;-3.46;nan;100945.31;5007200;28;19924;-30
2022/12/15 09:37:19;;;;;;;;;;;;;;;-3.41;nan;100943.06;5007250;28;19944;-29
2022/12/15 09:39:45;;;;;;;;;;;;;;;-3.33;nan;100944.91;5007386;28;20012;-29
2022/12/15 09:42:24;;;;;;;;;;;;;;;-3.39;nan;100951.59;5007456;28;19995;-29
2022/12/15 09:44:56;;;;;;;;;;;;;;;-3.47;nan;100953.31;5006998;28;19936;-30
2022/12/15 09:47:39;;;;;;;;;;;;;;;-3.54;nan;100955.72;5007320;28;20449;-30
2022/12/15 09:50:08;;;;;;;;;;;;;;;-3.60;nan;100971.22;5007394;28;19933;-30
2022/12/15 09:52:39;;;;;;;;;;;;;;;-3.66;nan;100963.00;5006654;28;19923;-29
2022/12/15 09:55:15;;;;;;;;;;;;;;;-3.59;nan;100954.53;5006881;28;19925;-30
2022/12/15 09:57:47;;;;;;;;;;;;;;;-3.57;nan;100956.03;5006217;28;19921;-30
2022/12/15 10:00:14;;;;;;;;;;;;;;;-3.52;nan;100953.78;5007220;28;19932;-30
2022/12/15 10:02:58;;;;;;;;;;;;;;;-3.42;nan;100957.13;5006428;28;19921;-30
2022/12/15 10:05:29;;;;;;;;;;;;;;;-3.39;nan;100962.09;5007042;28;19925;-30
2022/12/15 10:07:57;;;;;;;;;;;;;;;-3.27;nan;100959.19;5005978;28;19925;-30
2022/12/15 10:10:28;;;;;;;;;;;;;;;-3.26;nan;100959.03;5006769;28;19929;-30
2022/12/15 10:12:56;;;;;;;;;;;;;;;-3.23;nan;100955.28;5006387;28;19921;-30
2022/12/15 10:15:30;;;;;;;;;;;;;;;-3.17;nan;100958.13;5006815;28;19918;-30
2022/12/15 10:18:03;;;;;;;;;;;;;;;-3.14;nan;100949.97;5005275;28;20458;-30
2022/12/15 10:20:29;;;;;;;;;;;;;;;-3.06;nan;100955.25;5006879;28;19917;-30
2022/12/15 10:23:01;;;;;;;;;;;;;;;-2.99;nan;100947.59;5006512;28;19917;-30
2022/12/15 10:25:31;;;;;;;;;;;;;;;-2.89;nan;100944.84;5006929;28;19917;-30
2022/12/15 10:28:02;;;;;;;;;;;;;;;-2.84;nan;100943.44;5006601;28;19928;-30
2022/12/15 10:30:27;;;;;;;;;;;;;;;-2.75;nan;100950.34;5006820;28;19945;-30
2022/12/15 10:32:59;;;;;;;;;;;;;;;-2.69;nan;100950.69;5006404;28;19921;-30
2022/12/15 10:35:28;;;;;;;;;;;;;;;-2.66;nan;100945.16;5007845;28;19917;-30
2022/12/15 10:37:56;;;;;;;;;;;;;;;-2.61;nan;100945.50;5009237;28;19922;-30
2022/12/15 10:40:41;;;;;;;;;;;;;;;-2.48;nan;100948.50;5010344;28;19921;-30
2022/12/15 10:43:14;;;;;;;;;;;;;;;-2.38;nan;100953.63;5010208;28;19936;-30
2022/12/15 10:45:40;;;;;;;;;;;;;;;-2.35;nan;100943.63;5009727;28;19922;-30
2022/12/15 10:48:09;;;;;;;;;;;;;;;-2.32;nan;100940.69;5010380;28;19926;-30
2022/12/15 10:50:35;;;;;;;;;;;;;;;-2.27;nan;100943.66;5010113;28;20008;-32
2022/12/15 10:53:05;;;;;;;;;;;;;;;-2.20;nan;100936.78;5009654;28;20079;-33
2022/12/15 10:55:38;;;;;;;;;;;;;;;-2.09;nan;100940.91;5009895;28;20339;-32
2022/12/15 10:58:15;;;;;;;;;;;;;;;-1.96;nan;100948.34;5008562;28;19995;-32
2022/12/15 11:00:40;;;;;;;;;;;;;;;-1.89;nan;100947.50;5009465;28;20199;-32
2022/12/15 11:03:20;;;;;;;;;;;;;;;-1.77;nan;100945.41;5010215;28;20250;-32
2022/12/15 11:05:50;;;;;;;;;;;;;;;-1.56;nan;100947.53;5009976;28;19925;-34
2022/12/15 11:08:16;;;;;;;;;;;;;;;-1.49;nan;100937.19;5008724;28;19921;-32
2022/12/15 11:13:41;;;;;;;;;;;;;;;-1.28;nan;100940.94;5009299;28;20408;-32
2022/12/15 11:16:16;;;;;;;;;;;;;;;-1.20;nan;100940.13;5010018;28;19957;-32
2022/12/15 11:19:00;;;;;;;;;;;;;;;-1.05;nan;100951.63;5008931;28;19933;-32
2022/12/15 11:21:29;;;;;;;;;;;;;;;-0.91;nan;100944.81;5009914;28;19932;-32
2022/12/15 11:24:13;;;;;;;;;;;;;;;-0.84;nan;100942.34;5009054;28;19921;-35
2022/12/15 11:26:41;;;;;;;;;;;;;;;-0.75;nan;100957.94;5008376;28;20365;-33
2022/12/15 11:29:10;;;;;;;;;;;;;;;-0.69;nan;100956.44;5009843;28;19976;-32
2022/12/15 11:31:40;;;;;;;;;;;;;;;-0.66;nan;100953.47;5009468;28;20004;-32
2022/12/15 11:34:13;;;;;;;;;;;;;;;-0.57;nan;100959.53;5009307;28;19929;-32
2022/12/15 11:36:39;;;;;;;;;;;;;;;-0.44;nan;100959.81;5008782;28;19977;-34
2022/12/15 11:39:14;;;;;;;;;;;;;;;-0.35;nan;100959.63;5008251;28;19957;-33
2022/12/15 11:41:50;;;;;;;;;;;;;;;-0.22;nan;100966.94;5009137;28;19922;-33
2022/12/15 11:44:15;;;;;;;;;;;;;;;-0.11;nan;100968.38;5010010;28;20314;-32
2022/12/15 11:46:52;;;;;;;;;;;;;;;-0.06;nan;100977.38;5007404;28;19961;-32
2022/12/15 11:49:45;;;;;;;;;;;;;;;-0.02;nan;100980.50;4994008;28;19930;-33
2022/12/15 11:52:16;;;;;;;;;;;;;;;0.06;nan;100983.09;4997613;28;20377;-32
2022/12/15 11:54:54;;;;;;;;;;;;;;;0.11;nan;100975.50;5005500;28;20325;-32
2022/12/15 11:57:25;;;;;;;;;;;;;;;0.14;nan;100990.94;5002355;28;20124;-35
2022/12/15 12:00:09;;;;;;;;;;;;;;;0.07;nan;100984.75;5003838;28;20012;-33
2022/12/15 12:02:43;;;;;;;;;;;;;;;0.01;nan;100980.16;5002540;28;19921;-32
2022/12/15 12:05:18;;;;;;;;;;;;;;;-0.02;nan;100980.50;4998736;28;19925;-34
2022/12/15 12:07:45;;;;;;;;;;;;;;;-0.05;nan;100972.94;5000197;28;20014;-33
2022/12/15 12:10:33;;;;;;;;;;;;;;;-0.06;nan;100979.19;5005973;28;19933;-33
2022/12/15 12:12:58;;;;;;;;;;;;;;;-0.03;nan;100982.31;4994873;28;20036;-33
2022/12/15 12:15:24;;;;;;;;;;;;;;;-0.07;nan;100982.84;5001103;28;20008;-32
2022/12/15 12:17:49;;;;;;;;;;;;;;;-0.02;nan;100988.41;5005013;28;21387;-35
2022/12/15 12:20:20;;;;;;;;;;;;;;;-0.02;nan;100991.84;4998232;28;20271;-32
2022/12/15 12:23:01;;;;;;;;;;;;;;;0.05;nan;100992.00;5002538;28;19921;-35
2022/12/15 12:25:27;;;;;;;;;;;;;;;0.04;nan;100994.81;5003580;28;19917;-34
2022/12/15 12:28:12;;;;;;;;;;;;;;;0.07;nan;100992.63;5003837;28;19925;-32
2022/12/15 12:30:43;;;;;;;;;;;;;;;0.14;nan;100985.66;4997326;28;19930;-34
2022/12/15 12:33:26;;;;;;;;;;;;;;;0.22;nan;100982.19;5000260;28;20008;-34
2022/12/15 12:35:54;;;;;;;;;;;;;;;0.22;nan;100990.91;5000603;28;20012;-33
2022/12/15 12:38:23;;;;;;;;;;;;;;;0.27;nan;100991.19;4999651;28;20233;-33
2022/12/15 12:40:54;;;;;;;;;;;;;;;0.33;nan;100991.47;5002478;28;20317;-32
2022/12/15 12:43:30;;;;;;;;;;;;;;;0.33;nan;100996.75;5002352;28;19918;-35
2022/12/15 12:45:58;;;;;;;;;;;;;;;0.34;nan;101001.03;5000304;28;20004;-32
2022/12/15 12:48:30;;;;;;;;;;;;;;;0.37;nan;101000.69;5003820;28;20008;-33
2022/12/15 12:51:10;;;;;;;;;;;;;;;0.39;nan;100990.81;4996414;28;19949;-33
2022/12/15 12:53:35;;;;;;;;;;;;;;;0.37;nan;100998.06;5002685;28;19928;-34
2022/12/15 12:56:00;;;;;;;;;;;;;;;0.46;nan;100994.38;5001656;28;19939;-33
2022/12/15 12:58:33;;;;;;;;;;;;;;;0.50;nan;101006.19;5002030;28;19960;-33
2022/12/15 13:01:16;;;;;;;;;;;;;;;0.49;nan;100991.38;5004238;28;19964;-33
2022/12/15 13:03:42;;;;;;;;;;;;;;;0.53;nan;100992.66;5002557;28;20523;-33
2022/12/15 13:06:26;;;;;;;;;;;;;;;0.57;nan;100986.06;5000661;28;20270;-33
2022/12/15 13:08:51;;;;;;;;;;;;;;;0.60;nan;100994.41;4999806;28;20043;-32
2022/12/15 13:11:37;;;;;;;;;;;;;;;0.63;nan;100995.88;4999228;28;20436;-33
2022/12/15 13:14:02;;;;;;;;;;;;;;;0.61;nan;100992.59;4998439;28;19932;-33
2022/12/15 13:16:30;;;;;;;;;;;;;;;0.68;nan;100997.97;5005102;28;19925;-32
2022/12/15 13:18:57;;;;;;;;;;;;;;;0.66;nan;100997.34;4998901;28;20411;-33
2022/12/15 13:21:43;;;;;;;;;;;;;;;0.73;nan;100996.47;4999457;28;20162;-32
2022/12/15 13:24:24;;;;;;;;;;;;;;;0.79;nan;100997.56;5001147;28;20384;-33
2022/12/15 13:26:49;;;;;;;;;;;;;;;0.86;nan;100995.84;5002158;28;20008;-33
2022/12/15 13:29:17;;;;;;;;;;;;;;;0.94;nan;100995.78;4999827;28;20012;-34
2022/12/15 13:31:46;;;;;;;;;;;;;;;0.99;nan;100995.25;4999656;28;19925;-32
2022/12/15 13:34:14;;;;;;;;;;;;;;;0.98;nan;100994.44;5002556;28;20389;-34
2022/12/15 13:36:39;;;;;;;;;;;;;;;0.99;nan;100998.69;4998895;28;19925;-32
2022/12/15 13:39:13;;;;;;;;;;;;;;;1.01;nan;100998.53;5000199;28;19928;-35
2022/12/15 13:41:48;;;;;;;;;;;;;;;1.07;nan;100997.78;5001630;28;19928;-33
2022/12/15 13:44:13;;;;;;;;;;;;;;;1.15;nan;100989.81;5002121;28;19921;-33
2022/12/15 13:46:42;;;;;;;;;;;;;;;1.21;nan;101004.91;5000023;28;20373;-33
2022/12/15 13:49:11;;;;;;;;;;;;;;;1.27;nan;100998.94;5000550;28;19926;-33
2022/12/15 13:51:41;;;;;;;;;;;;;;;1.35;nan;101011.22;4999496;28;20008;-33
2022/12/15 13:54:15;;;;;;;;;;;;;;;1.37;nan;101004.75;4995341;28;19933;-33
2022/12/15 13:56:53;;;;;;;;;;;;;;;1.43;nan;101011.13;5000100;28;19928;-33
2022/12/15 13:59:28;;;;;;;;;;;;;;;1.47;nan;101010.59;5001611;28;19925;-32
2022/12/15 14:01:53;;;;;;;;;;;;;;;1.50;nan;101015.50;4997748;28;19925;-34
2022/12/15 14:04:19;;;;;;;;;;;;;;;1.54;nan;101004.56;4996916;28;20347;-33
2022/12/15 14:06:52;;;;;;;;;;;;;;;1.59;nan;101010.13;4998792;28;20324;-33
2022/12/15 14:09:20;;;;;;;;;;;;;;;1.59;nan;101007.47;5000235;28;19928;-33
2022/12/15 14:11:46;;;;;;;;;;;;;;;1.61;nan;101010.75;5004240;28;20451;-33
2022/12/15 14:14:23;;;;;;;;;;;;;;;1.59;nan;101007.47;5003726;28;19987;-33
2022/12/15 14:16:53;;;;;;;;;;;;;;;1.60;nan;101015.22;5005055;28;19918;-35
2022/12/15 14:19:19;;;;;;;;;;;;;;;1.62;nan;101028.28;5004064;28;20343;-33
2022/12/15 14:22:02;;;;;;;;;;;;;;;1.62;nan;101028.28;5006653;28;19917;-33
2022/12/15 14:24:29;;;;;;;;;;;;;;;1.67;nan;101025.88;5007182;28;20544;-33
2022/12/15 14:26:55;;;;;;;;;;;;;;;1.71;nan;101027.16;5006265;28;19987;-33
2022/12/15 14:29:21;;;;;;;;;;;;;;;1.74;nan;101029.44;5007457;28;20374;-33
2022/12/15 14:32:04;;;;;;;;;;;;;;;1.75;nan;101021.31;5008187;28;19952;-35
2022/12/15 14:34:37;;;;;;;;;;;;;;;1.74;nan;101024.16;5005481;28;19925;-34
2022/12/15 14:37:06;;;;;;;;;;;;;;;1.71;nan;101033.25;5007419;28;19968;-34
2022/12/15 14:39:31;;;;;;;;;;;;;;;1.68;nan;101031.00;5008424;28;20024;-33
2022/12/15 14:41:57;;;;;;;;;;;;;;;1.68;nan;101024.88;5006952;28;20000;-33
2022/12/15 14:44:42;;;;;;;;;;;;;;;1.68;nan;101044.19;5005876;28;19972;-33
2022/12/15 14:47:16;;;;;;;;;;;;;;;1.70;nan;101036.09;5005827;28;19977;-33
2022/12/15 14:49:43;;;;;;;;;;;;;;;1.67;nan;101036.47;5007664;28;19930;-33
2022/12/15 14:52:35;;;;;;;;;;;;;;;1.73;nan;101038.34;5007209;28;20284;-33
2022/12/15 14:55:02;;;;;;;;;;;;;;;1.71;nan;101033.25;5000816;28;20020;-33
2022/12/15 14:57:36;;;;;;;;;;;;;;;1.75;nan;101039.00;5007928;28;20308;-35
2022/12/15 15:00:14;;;;;;;;;;;;;;;1.73;nan;101030.44;5007834;28;19944;-35
2022/12/15 15:02:40;;;;;;;;;;;;;;;1.71;nan;101043.00;5008978;28;20373;-33
2022/12/15 15:05:22;;;;;;;;;;;;;;;1.69;nan;101039.72;5007150;28;19924;-33
2022/12/15 15:07:54;;;;;;;;;;;;;;;1.67;nan;101036.47;5008739;28;19918;-33
2022/12/15 15:10:21;;;;;;;;;;;;;;;1.68;nan;101041.56;5001652;28;20022;-34
2022/12/15 15:12:47;;;;;;;;;;;;;;;1.77;nan;101039.63;5008844;28;19918;-33
2022/12/15 15:15:17;;;;;;;;;;;;;;;1.73;nan;101041.00;5006834;28;20501;-34
2022/12/15 15:17:48;;;;;;;;;;;;;;;1.73;nan;101043.63;5007179;28;20338;-33
2022/12/15 15:20:27;;;;;;;;;;;;;;;1.71;nan;101043.81;5006853;28;20019;-33
2022/12/15 15:23:09;;;;;;;;;;;;;;;1.70;nan;101042.19;5005655;28;20012;-35
2022/12/15 15:25:40;;;;;;;;;;;;;;;1.73;nan;101041.81;5009502;28;19940;-33
2022/12/15 15:28:11;;;;;;;;;;;;;;;1.72;nan;101048.09;5005062;28;20360;-33
2022/12/15 15:30:41;;;;;;;;;;;;;;;1.73;nan;101041.81;5007119;28;19925;-33
2022/12/15 15:33:07;;;;;;;;;;;;;;;1.76;nan;101044.09;5006197;28;20004;-33
2022/12/15 15:35:33;;;;;;;;;;;;;;;1.76;nan;101041.44;5006856;28;20652;-33